createdAt,value
2018-12-19T07:17:35.123Z,2.46
2018-12-19T07:18:34.343Z,2.45
2018-12-19T07:19:34.307Z,2.53
2018-12-19T07:20:34.275Z,2.49
2018-12-19T07:21:34.245Z,2.63
2018-12-19T07:22:34.215Z,2.63
2018-12-19T07:23:34.183Z,2.64
2018-12-19T07:24:34.152Z,2.64
2018-12-19T07:25:34.123Z,2.52
2018-12-19T07:26:34.092Z,2.48
2018-12-19T07:27:34.118Z,2.59
2018-12-19T07:28:34.035Z,2.35
2018-12-19T07:29:34.000Z,2.55
2018-12-19T07:30:34.022Z,2.53
2018-12-19T07:31:33.940Z,2.40
2018-12-19T07:32:33.909Z,2.53
2018-12-19T07:33:33.879Z,2.52
2018-12-19T07:34:33.849Z,2.52
2018-12-19T07:35:33.821Z,2.52
2018-12-19T07:36:33.789Z,2.46
2018-12-19T07:37:33.760Z,2.52
2018-12-19T07:38:33.730Z,2.55
2018-12-19T07:39:33.700Z,2.51
2018-12-19T07:40:33.670Z,2.45
2018-12-19T07:41:33.640Z,2.49
2018-12-19T07:42:33.610Z,2.46
2018-12-19T07:43:33.581Z,2.52
2018-12-19T07:44:34.301Z,2.46
2018-12-19T07:45:33.521Z,2.64
2018-12-19T07:46:33.491Z,2.44
2018-12-19T07:47:33.461Z,2.52
2018-12-19T07:48:33.431Z,2.45
2018-12-19T07:49:33.401Z,2.40
2018-12-19T07:50:33.371Z,2.48
2018-12-19T07:51:33.345Z,2.49
2018-12-19T07:52:33.312Z,2.35
2018-12-19T07:53:33.282Z,2.34
2018-12-19T07:54:33.252Z,2.48
2018-12-19T07:55:33.223Z,2.46
2018-12-19T07:56:33.192Z,2.52
2018-12-19T07:57:33.163Z,2.45
2018-12-19T07:58:33.134Z,2.35
2018-12-19T07:59:33.103Z,2.38
2018-12-19T08:00:33.072Z,2.34
2018-12-19T08:01:33.046Z,2.34
2018-12-19T08:02:33.015Z,2.28
2018-12-19T08:03:32.985Z,2.28
2018-12-19T08:04:32.954Z,2.23
2018-12-19T08:05:33.675Z,2.23
2018-12-19T08:06:32.895Z,2.13
2018-12-19T08:07:32.865Z,2.13
2018-12-19T08:08:32.835Z,2.22
2018-12-19T08:09:32.805Z,2.15
2018-12-19T08:10:32.777Z,2.08
2018-12-19T08:11:32.747Z,2.13
2018-12-19T08:12:36.025Z,2.17
2018-12-19T08:13:32.685Z,2.16
2018-12-19T08:14:32.656Z,2.09
2018-12-19T08:15:32.626Z,2.08
2018-12-19T08:16:33.346Z,2.08
2018-12-19T08:17:32.565Z,2.12
2018-12-19T08:18:32.544Z,2.10
2018-12-19T08:19:32.506Z,2.12
2018-12-19T08:20:32.475Z,2.19
2018-12-19T08:21:32.446Z,2.10
2018-12-19T08:22:32.416Z,2.20
2018-12-19T08:23:32.388Z,2.19
2018-12-19T08:24:32.357Z,2.04
2018-12-19T08:25:32.326Z,2.08
2018-12-19T08:26:32.296Z,2.06
2018-12-19T08:27:39.022Z,2.09
2018-12-19T08:28:32.236Z,2.09
2018-12-19T08:29:32.206Z,2.13
2018-12-19T08:30:32.177Z,2.19
2018-12-19T08:31:32.147Z,2.22
2018-12-19T08:32:32.117Z,2.30
2018-12-19T08:33:32.087Z,2.26
2018-12-19T08:34:32.056Z,2.26
2018-12-19T08:35:32.029Z,2.27
2018-12-19T08:36:31.997Z,2.23
2018-12-19T08:37:31.967Z,2.20
2018-12-19T08:38:31.938Z,2.26
2018-12-19T08:39:31.908Z,2.13
2018-12-19T08:40:31.877Z,2.10
2018-12-19T08:41:31.848Z,2.15
2018-12-19T08:42:31.818Z,2.10
2018-12-19T08:43:31.789Z,2.23
2018-12-19T08:44:31.764Z,2.33
2018-12-19T08:45:31.730Z,2.31
2018-12-19T08:46:31.699Z,2.35
2018-12-19T08:47:31.669Z,2.33
2018-12-19T08:48:31.641Z,2.45
2018-12-19T08:49:31.610Z,2.26
2018-12-19T08:50:31.580Z,2.27
2018-12-19T08:51:31.555Z,2.30
2018-12-19T08:52:31.520Z,2.28
2018-12-19T08:53:31.490Z,2.33
2018-12-19T08:54:31.460Z,2.37
2018-12-19T08:55:31.435Z,2.45
2018-12-19T08:56:31.401Z,2.34
2018-12-19T08:57:31.371Z,2.31
2018-12-19T08:58:31.342Z,2.27
2018-12-19T08:59:32.814Z,2.33
2018-12-19T09:00:31.283Z,2.13
2018-12-19T09:01:31.253Z,2.13
2018-12-19T09:02:31.223Z,2.12
2018-12-19T09:03:31.194Z,1.99
2018-12-19T09:04:31.164Z,1.93
2018-12-19T09:05:33.385Z,2.02
2018-12-19T09:06:31.105Z,2.06
2018-12-19T09:07:31.079Z,2.01
2018-12-19T09:08:31.045Z,2.08
2018-12-19T09:09:31.867Z,2.04
2018-12-19T09:10:30.987Z,1.98
2018-12-19T09:11:30.955Z,1.87
2018-12-19T09:12:30.924Z,1.91
2018-12-19T09:13:30.895Z,2.01
2018-12-19T09:14:30.870Z,1.99
2018-12-19T09:15:30.836Z,1.98
2018-12-19T09:16:30.806Z,1.91
2018-12-19T09:17:30.778Z,1.98
2018-12-19T09:18:30.746Z,1.91
2018-12-19T09:19:30.716Z,1.93
2018-12-19T09:20:30.685Z,2.02
2018-12-19T09:21:30.655Z,2.09
2018-12-19T09:22:30.625Z,2.15
2018-12-19T09:23:30.598Z,2.31
2018-12-19T09:24:30.565Z,2.17
2018-12-19T09:25:30.538Z,2.16
2018-12-19T09:26:30.506Z,2.13
2018-12-19T09:27:30.477Z,2.22
2018-12-19T09:28:30.445Z,2.22
2018-12-19T09:29:30.415Z,2.28
2018-12-19T09:30:30.387Z,2.31
2018-12-19T09:31:30.357Z,2.28
2018-12-19T09:32:30.325Z,2.35
2018-12-19T09:33:30.296Z,2.28
2018-12-19T09:34:30.266Z,2.27
2018-12-19T09:35:30.237Z,2.23
2018-12-19T09:36:30.205Z,2.46
2018-12-19T09:37:30.176Z,2.45
2018-12-19T09:38:32.452Z,2.37
2018-12-19T09:39:30.116Z,2.31
2018-12-19T09:40:30.086Z,2.28
2018-12-19T09:41:30.056Z,2.23
2018-12-19T09:42:30.026Z,2.28
2018-12-19T09:43:29.998Z,2.48
2018-12-19T09:44:30.717Z,2.45
2018-12-19T09:45:29.936Z,2.45
2018-12-19T09:46:29.906Z,2.46
2018-12-19T09:47:29.879Z,2.59
2018-12-19T09:48:29.856Z,2.63
2018-12-19T09:49:29.817Z,2.64
2018-12-19T09:50:29.787Z,2.67
2018-12-19T09:51:29.758Z,2.67
2018-12-19T09:52:29.727Z,2.59
2018-12-19T09:53:29.698Z,2.74
2018-12-19T09:54:29.669Z,2.79
2018-12-19T09:55:29.638Z,2.91
2018-12-19T09:56:29.609Z,3.12
2018-12-19T09:57:29.579Z,3.27
2018-12-19T09:58:29.550Z,3.28
2018-12-19T09:59:29.525Z,3.39
2018-12-19T10:00:29.490Z,3.44
2018-12-19T10:01:29.461Z,3.52
2018-12-19T10:02:29.431Z,3.57
2018-12-19T10:03:29.402Z,3.64
2018-12-19T10:04:29.373Z,3.65
2018-12-19T10:05:29.342Z,3.64
2018-12-19T10:06:29.314Z,3.58
2018-12-19T10:07:29.815Z,3.49
2018-12-19T10:08:29.255Z,3.30
2018-12-19T10:09:29.225Z,3.24
2018-12-19T10:10:29.196Z,3.20
2018-12-19T10:11:29.167Z,3.23
2018-12-19T10:12:29.138Z,3.20
2018-12-19T10:13:29.107Z,3.18
2018-12-19T10:14:29.086Z,3.23
2018-12-19T10:15:29.050Z,3.20
2018-12-19T10:16:29.021Z,3.23
2018-12-19T10:17:28.991Z,3.21
2018-12-19T10:18:28.963Z,3.13
2018-12-19T10:19:28.932Z,3.13
2018-12-19T10:20:28.909Z,3.16
2018-12-19T10:21:28.873Z,3.28
2018-12-19T10:22:28.844Z,3.30
2018-12-19T10:23:28.814Z,3.34
2018-12-19T10:24:28.785Z,3.61
2018-12-19T10:25:28.755Z,3.75
2018-12-19T10:26:28.728Z,3.86
2018-12-19T10:27:28.698Z,3.86
2018-12-19T10:28:28.667Z,3.96
2018-12-19T10:29:28.639Z,4.18
2018-12-19T10:30:28.610Z,4.18
2018-12-19T10:31:28.581Z,4.10
2018-12-19T10:32:28.551Z,4.16
2018-12-19T10:33:28.523Z,4.15
2018-12-19T10:34:28.493Z,4.21
2018-12-19T10:35:28.465Z,4.28
2018-12-19T10:36:28.435Z,4.39
2018-12-19T10:37:28.407Z,4.40
2018-12-19T10:38:28.378Z,4.44
2018-12-19T10:39:28.349Z,4.54
2018-12-19T10:40:28.322Z,4.59
2018-12-19T10:41:28.291Z,4.62
2018-12-19T10:42:28.263Z,4.64
2018-12-19T10:43:28.246Z,4.69
2018-12-19T10:44:28.205Z,4.73
2018-12-19T10:45:28.176Z,4.79
2018-12-19T10:46:28.215Z,4.92
2018-12-19T10:47:28.119Z,4.89
2018-12-19T10:48:28.090Z,4.91
2018-12-19T10:49:28.062Z,4.62
2018-12-19T10:50:28.035Z,4.51
2018-12-19T10:51:28.006Z,4.44
2018-12-19T10:52:27.976Z,4.34
2018-12-19T10:53:27.949Z,4.25
2018-12-19T10:54:27.924Z,4.04
2018-12-19T10:55:27.892Z,4.08
2018-12-19T10:56:27.863Z,4.07
2018-12-19T10:57:27.835Z,4.01
2018-12-19T10:58:27.806Z,3.79
2018-12-19T10:59:27.778Z,3.65
2018-12-19T11:00:27.748Z,3.71
2018-12-19T11:01:27.720Z,3.50
2018-12-19T11:02:27.692Z,3.49
2018-12-19T11:03:27.663Z,3.50
2018-12-19T11:04:27.636Z,3.57
2018-12-19T11:05:27.605Z,3.36
2018-12-19T11:06:27.577Z,3.47
2018-12-19T11:07:27.549Z,3.43
2018-12-19T11:08:27.519Z,3.39
2018-12-19T11:09:27.492Z,3.53
2018-12-19T11:10:27.463Z,3.50
2018-12-19T11:11:32.298Z,3.39
2018-12-19T11:12:27.403Z,3.39
2018-12-19T11:13:27.377Z,3.34
2018-12-19T11:14:27.346Z,3.46
2018-12-19T11:15:27.317Z,3.49
2018-12-19T11:16:27.287Z,3.49
2018-12-19T11:17:27.258Z,3.47
2018-12-19T11:18:27.229Z,3.50
2018-12-19T11:19:27.201Z,3.62
2018-12-19T11:20:27.172Z,3.75
2018-12-19T11:21:27.143Z,3.82
2018-12-19T11:22:27.114Z,3.68
2018-12-19T11:23:27.084Z,3.65
2018-12-19T11:24:27.055Z,3.68
2018-12-19T11:25:27.046Z,3.78
2018-12-19T11:26:26.998Z,3.86
2018-12-19T11:27:26.969Z,3.86
2018-12-19T11:28:26.939Z,3.89
2018-12-19T11:29:26.917Z,3.88
2018-12-19T11:30:26.882Z,3.90
2018-12-19T11:31:26.853Z,3.82
2018-12-19T11:32:26.826Z,3.78
2018-12-19T11:33:26.795Z,3.65
2018-12-19T11:34:26.767Z,3.70
2018-12-19T11:35:26.738Z,3.75
2018-12-19T11:36:26.708Z,3.83
2018-12-19T11:37:26.680Z,3.88
2018-12-19T11:38:26.651Z,3.70
2018-12-19T11:39:26.627Z,3.76
2018-12-19T11:40:26.592Z,3.78
2018-12-19T11:41:26.564Z,3.88
2018-12-19T11:42:27.287Z,3.89
2018-12-19T11:43:26.507Z,4.07
2018-12-19T11:44:26.478Z,4.07
2018-12-19T11:45:26.449Z,4.14
2018-12-19T11:46:26.421Z,4.12
2018-12-19T11:47:26.392Z,4.16
2018-12-19T11:48:26.366Z,4.16
2018-12-19T11:49:26.337Z,4.12
2018-12-19T11:50:26.308Z,4.19
2018-12-19T11:51:26.278Z,4.16
2018-12-19T11:52:26.248Z,4.12
2018-12-19T11:53:26.224Z,4.28
2018-12-19T11:54:26.193Z,4.25
2018-12-19T11:55:26.163Z,4.40
2018-12-19T11:56:26.132Z,4.40
2018-12-19T11:57:26.103Z,4.44
2018-12-19T11:58:26.076Z,4.57
2018-12-19T11:59:26.050Z,4.42
2018-12-19T12:00:26.022Z,4.42
2018-12-19T12:01:25.992Z,4.39
2018-12-19T12:02:25.962Z,4.28
2018-12-19T12:03:25.933Z,4.24
2018-12-19T12:04:25.907Z,4.07
2018-12-19T12:05:25.877Z,4.10
2018-12-19T12:06:25.883Z,4.03
2018-12-19T12:07:25.819Z,3.68
2018-12-19T12:08:25.792Z,3.89
2018-12-19T12:09:25.763Z,3.83
2018-12-19T12:10:25.733Z,3.78
2018-12-19T12:11:25.705Z,3.71
2018-12-19T12:12:25.680Z,3.70
2018-12-19T12:13:25.704Z,3.78
2018-12-19T12:14:26.370Z,3.80
2018-12-19T12:15:25.590Z,3.75
2018-12-19T12:16:25.560Z,3.68
2018-12-19T12:17:25.532Z,3.64
2018-12-19T12:18:25.503Z,3.67
2018-12-19T12:19:25.475Z,3.75
2018-12-19T12:20:25.445Z,3.70
2018-12-19T12:21:25.418Z,3.72
2018-12-19T12:22:25.388Z,3.94
2018-12-19T12:23:25.395Z,3.89
2018-12-19T12:24:25.330Z,3.92
2018-12-19T12:25:25.305Z,3.88
2018-12-19T12:26:25.273Z,3.83
2018-12-19T12:27:25.245Z,3.82
2018-12-19T12:28:25.215Z,3.70
2018-12-19T12:29:25.191Z,3.86
2018-12-19T12:30:25.160Z,3.89
2018-12-19T12:31:25.130Z,3.79
2018-12-19T12:32:25.099Z,3.85
2018-12-19T12:33:25.073Z,3.85
2018-12-19T12:34:25.042Z,3.88
2018-12-19T12:35:25.015Z,3.88
2018-12-19T12:36:24.986Z,3.89
2018-12-19T12:37:24.960Z,3.97
2018-12-19T12:38:24.928Z,4.00
2018-12-19T12:39:24.900Z,4.04
2018-12-19T12:40:24.870Z,4.14
2018-12-19T12:41:26.346Z,4.21
2018-12-19T12:42:24.813Z,4.07
2018-12-19T12:43:24.786Z,4.14
2018-12-19T12:44:24.757Z,4.08
2018-12-19T12:45:24.727Z,4.12
2018-12-19T12:46:24.699Z,4.16
2018-12-19T12:47:24.671Z,4.29
2018-12-19T12:48:24.641Z,4.16
2018-12-19T12:49:24.613Z,4.37
2018-12-19T12:50:24.584Z,4.40
2018-12-19T12:51:24.557Z,4.37
2018-12-19T12:52:24.527Z,4.47
2018-12-19T12:53:24.499Z,4.65
2018-12-19T12:54:24.478Z,4.70
2018-12-19T12:55:24.442Z,4.62
2018-12-19T12:56:24.413Z,4.70
2018-12-19T12:57:24.386Z,4.62
2018-12-19T12:58:24.358Z,4.51
2018-12-19T12:59:24.328Z,4.39
2018-12-19T13:00:24.299Z,4.37
2018-12-19T13:01:24.271Z,4.36
2018-12-19T13:02:24.243Z,4.40
2018-12-19T13:03:24.215Z,4.29
2018-12-19T13:04:24.186Z,4.24
2018-12-19T13:05:24.158Z,4.34
2018-12-19T13:06:24.130Z,4.40
2018-12-19T13:07:24.102Z,4.43
2018-12-19T13:08:25.574Z,4.51
2018-12-19T13:09:24.045Z,4.47
2018-12-19T13:10:24.016Z,4.37
2018-12-19T13:11:23.989Z,4.26
2018-12-19T13:12:23.959Z,4.28
2018-12-19T13:13:23.931Z,4.29
2018-12-19T13:14:23.908Z,4.44
2018-12-19T13:15:23.878Z,4.50
2018-12-19T13:16:23.846Z,4.50
2018-12-19T13:17:23.819Z,4.46
2018-12-19T13:18:23.796Z,4.70
2018-12-19T13:19:23.763Z,4.70
2018-12-19T13:20:23.733Z,4.67
2018-12-19T13:21:23.706Z,4.65
2018-12-19T13:22:23.678Z,4.28
2018-12-19T13:23:23.650Z,4.24
2018-12-19T13:24:23.621Z,4.03
2018-12-19T13:25:23.597Z,4.25
2018-12-19T13:26:23.564Z,4.12
2018-12-19T13:27:23.537Z,4.15
2018-12-19T13:28:23.508Z,4.21
2018-12-19T13:29:23.479Z,4.28
2018-12-19T13:30:23.452Z,4.26
2018-12-19T13:31:23.423Z,4.40
2018-12-19T13:32:23.394Z,4.52
2018-12-19T13:33:23.368Z,4.59
2018-12-19T13:34:23.339Z,4.59
2018-12-19T13:35:23.310Z,4.54
2018-12-19T13:36:23.281Z,4.57
2018-12-19T13:37:23.254Z,4.70
2018-12-19T13:38:23.225Z,4.80
2018-12-19T13:39:23.197Z,4.91
2018-12-19T13:40:23.168Z,5.07
2018-12-19T13:41:26.142Z,5.07
2018-12-19T13:42:23.110Z,4.98
2018-12-19T13:43:23.083Z,4.99
2018-12-19T13:44:23.059Z,5.07
2018-12-19T13:45:23.027Z,5.09
2018-12-19T13:46:22.999Z,5.12
2018-12-19T13:47:24.472Z,5.07
2018-12-19T13:48:22.942Z,5.09
2018-12-19T13:49:22.914Z,5.19
2018-12-19T13:50:22.887Z,5.09
2018-12-19T13:51:22.859Z,5.20
2018-12-19T13:52:22.830Z,5.19
2018-12-19T13:53:22.803Z,5.19
2018-12-19T13:54:22.775Z,5.20
2018-12-19T13:55:22.749Z,5.22
2018-12-19T13:56:22.719Z,5.13
2018-12-19T13:57:22.691Z,5.16
2018-12-19T13:58:22.663Z,5.22
2018-12-19T13:59:22.636Z,5.22
2018-12-19T14:00:22.607Z,5.28
2018-12-19T14:01:22.580Z,5.25
2018-12-19T14:02:22.553Z,5.20
2018-12-19T14:03:22.524Z,5.23
2018-12-19T14:04:22.494Z,5.13
2018-12-19T14:05:22.468Z,5.09
2018-12-19T14:06:22.440Z,5.10
2018-12-19T14:07:22.412Z,4.94
2018-12-19T14:08:22.385Z,4.91
2018-12-19T14:09:22.356Z,4.73
2018-12-19T14:10:22.329Z,4.76
2018-12-19T14:11:22.300Z,4.92
2018-12-19T14:12:22.271Z,4.92
2018-12-19T14:13:22.244Z,4.92
2018-12-19T14:14:25.971Z,4.88
2018-12-19T14:15:22.188Z,4.86
2018-12-19T14:16:22.159Z,4.88
2018-12-19T14:17:22.132Z,4.86
2018-12-19T14:18:22.104Z,4.92
2018-12-19T14:19:22.075Z,4.79
2018-12-19T14:20:22.797Z,4.70
2018-12-19T14:21:22.019Z,4.62
2018-12-19T14:22:21.990Z,4.65
2018-12-19T14:23:21.964Z,4.76
2018-12-19T14:24:21.933Z,4.80
2018-12-19T14:25:21.907Z,4.76
2018-12-19T14:26:21.879Z,4.67
2018-12-19T14:27:21.850Z,4.70
2018-12-19T14:28:21.822Z,4.70
2018-12-19T14:29:21.793Z,4.67
2018-12-19T14:30:21.765Z,4.67
2018-12-19T14:31:22.488Z,4.73
2018-12-19T14:32:21.708Z,4.61
2018-12-19T14:33:21.680Z,4.62
2018-12-19T14:34:21.652Z,4.47
2018-12-19T14:35:21.624Z,4.44
2018-12-19T14:36:21.595Z,4.40
2018-12-19T14:37:21.566Z,4.34
2018-12-19T14:38:21.538Z,4.25
2018-12-19T14:39:21.512Z,4.34
2018-12-19T14:40:21.483Z,4.14
2018-12-19T14:41:21.453Z,4.04
2018-12-19T14:42:21.424Z,4.08
2018-12-19T14:43:21.396Z,4.06
2018-12-19T14:44:21.366Z,4.07
2018-12-19T14:45:21.338Z,4.08
2018-12-19T14:46:21.309Z,4.10
2018-12-19T14:47:21.281Z,4.18
2018-12-19T14:48:21.252Z,4.12
2018-12-19T14:49:21.223Z,4.12
2018-12-19T14:50:21.195Z,4.06
2018-12-19T14:51:21.168Z,4.03
2018-12-19T14:52:21.136Z,4.08
2018-12-19T14:53:21.107Z,4.04
2018-12-19T14:54:21.080Z,3.86
2018-12-19T14:55:21.052Z,3.96
2018-12-19T14:56:21.020Z,3.97
2018-12-19T14:57:20.992Z,3.85
2018-12-19T14:58:20.962Z,3.86
2018-12-19T14:59:20.935Z,3.85
2018-12-19T15:00:20.904Z,3.80
2018-12-19T15:01:20.875Z,3.75
2018-12-19T15:02:20.846Z,3.72
2018-12-19T15:03:21.568Z,3.70
2018-12-19T15:04:20.787Z,3.70
2018-12-19T15:05:20.758Z,3.70
2018-12-19T15:06:20.729Z,3.61
2018-12-19T15:07:20.701Z,3.67
2018-12-19T15:08:20.670Z,3.71
2018-12-19T15:09:20.643Z,3.70
2018-12-19T15:10:20.612Z,3.64
2018-12-19T15:11:20.583Z,3.60
2018-12-19T15:12:25.764Z,3.61
2018-12-19T15:13:20.523Z,3.60
2018-12-19T15:14:22.746Z,3.70
2018-12-19T15:15:20.468Z,3.64
2018-12-19T15:16:20.435Z,3.71
2018-12-19T15:17:20.406Z,3.76
2018-12-19T15:18:20.376Z,3.70
2018-12-19T15:19:20.348Z,3.70
2018-12-19T15:20:23.319Z,3.75
2018-12-19T15:21:20.290Z,3.62
2018-12-19T15:22:20.258Z,3.58
2018-12-19T15:23:20.229Z,3.58
2018-12-19T15:24:20.198Z,3.61
2018-12-19T15:25:20.169Z,3.60
2018-12-19T15:26:20.892Z,3.62
2018-12-19T15:27:20.111Z,3.64
2018-12-19T15:28:20.081Z,3.61
2018-12-19T15:29:20.052Z,3.68
2018-12-19T15:30:20.022Z,3.64
2018-12-19T15:31:19.993Z,3.64
2018-12-19T15:32:19.963Z,3.78
2018-12-19T15:33:19.935Z,3.61
2018-12-19T15:34:19.907Z,3.67
2018-12-19T15:35:19.876Z,3.62
2018-12-19T15:36:19.846Z,3.71
2018-12-19T15:37:19.815Z,3.71
2018-12-19T15:38:19.786Z,3.72
2018-12-19T15:39:19.757Z,3.75
2018-12-19T15:40:19.727Z,3.83
2018-12-19T15:41:19.699Z,3.76
2018-12-19T15:42:19.670Z,3.78
2018-12-19T15:43:19.647Z,3.83
2018-12-19T15:44:19.609Z,3.88
2018-12-19T15:45:19.580Z,3.88
2018-12-19T15:46:19.551Z,3.85
2018-12-19T15:47:19.524Z,3.88
2018-12-19T15:48:19.492Z,3.94
2018-12-19T15:49:19.468Z,3.83
2018-12-19T15:50:19.433Z,3.92
2018-12-19T15:51:19.403Z,3.96
2018-12-19T15:52:19.374Z,3.97
2018-12-19T15:53:19.345Z,4.00
2018-12-19T15:54:19.315Z,4.00
2018-12-19T15:55:19.289Z,3.92
2018-12-19T15:56:19.256Z,4.04
2018-12-19T15:57:19.227Z,4.06
2018-12-19T15:58:19.197Z,4.06
2018-12-19T15:59:19.169Z,4.06
2018-12-19T16:00:19.138Z,4.07
2018-12-19T16:01:19.109Z,4.10
2018-12-19T16:02:19.080Z,4.15
2018-12-19T16:03:19.051Z,4.14
2018-12-19T16:04:19.021Z,4.10
2018-12-19T16:05:18.991Z,4.14
2018-12-19T16:06:18.963Z,4.08
2018-12-19T16:07:18.935Z,4.16
2018-12-19T16:08:21.906Z,4.19
2018-12-19T16:09:18.875Z,4.21
2018-12-19T16:10:18.847Z,4.32
2018-12-19T16:11:18.817Z,4.29
2018-12-19T16:12:18.791Z,4.29
2018-12-19T16:13:18.758Z,4.34
2018-12-19T16:14:18.729Z,4.32
2018-12-19T16:15:18.700Z,4.28
2018-12-19T16:16:18.670Z,4.28
2018-12-19T16:17:18.641Z,4.29
2018-12-19T16:18:18.613Z,4.33
2018-12-19T16:19:18.585Z,4.36
2018-12-19T16:20:18.553Z,4.32
2018-12-19T16:21:18.524Z,4.36
2018-12-19T16:22:18.495Z,4.29
2018-12-19T16:23:18.467Z,4.24
2018-12-19T16:24:18.437Z,4.33
2018-12-19T16:25:19.158Z,4.36
2018-12-19T16:26:18.378Z,4.29
2018-12-19T16:27:18.349Z,4.36
2018-12-19T16:28:18.319Z,4.33
2018-12-19T16:29:18.290Z,4.34
2018-12-19T16:30:18.259Z,4.32
2018-12-19T16:31:18.236Z,4.44
2018-12-19T16:32:18.202Z,4.40
2018-12-19T16:33:18.173Z,4.50
2018-12-19T16:34:18.143Z,4.42
2018-12-19T16:35:18.114Z,4.40
2018-12-19T16:36:18.084Z,4.43
2018-12-19T16:37:18.055Z,4.46
2018-12-19T16:38:18.406Z,4.62
2018-12-19T16:39:17.997Z,4.59
2018-12-19T16:40:17.966Z,4.67
2018-12-19T16:41:18.688Z,4.70
2018-12-19T16:42:17.914Z,4.79
2018-12-19T16:43:17.880Z,4.83
2018-12-19T16:44:17.849Z,4.92
2018-12-19T16:45:17.820Z,4.99
2018-12-19T16:46:17.791Z,4.98
2018-12-19T16:47:17.762Z,5.02
2018-12-19T16:48:17.733Z,5.13
2018-12-19T16:49:17.703Z,5.16
2018-12-19T16:50:17.674Z,5.10
2018-12-19T16:51:17.671Z,5.14
2018-12-19T16:52:17.614Z,5.14
2018-12-19T16:53:17.585Z,5.13
2018-12-19T16:54:17.556Z,5.17
2018-12-19T16:55:17.527Z,5.17
2018-12-19T16:56:17.497Z,5.19
2018-12-19T16:57:17.469Z,5.04
2018-12-19T16:58:17.480Z,5.09
2018-12-19T16:59:17.414Z,5.05
2018-12-19T17:00:17.382Z,5.07
2018-12-19T17:01:17.353Z,5.20
2018-12-19T17:02:17.322Z,5.22
2018-12-19T17:03:22.548Z,5.19
2018-12-19T17:04:17.266Z,5.27
2018-12-19T17:05:17.236Z,5.13
2018-12-19T17:06:17.207Z,5.07
2018-12-19T17:07:17.180Z,5.17
2018-12-19T17:08:17.152Z,5.19
2018-12-19T17:09:17.120Z,5.09
2018-12-19T17:10:17.092Z,5.07
2018-12-19T17:11:17.064Z,5.07
2018-12-19T17:12:17.034Z,5.16
2018-12-19T17:13:17.005Z,5.10
2018-12-19T17:14:16.981Z,5.14
2018-12-19T17:15:16.948Z,5.16
2018-12-19T17:16:16.916Z,5.07
2018-12-19T17:17:16.890Z,5.05
2018-12-19T17:18:16.864Z,5.12
2018-12-19T17:19:16.830Z,5.01
2018-12-19T17:20:16.800Z,5.13
2018-12-19T17:21:16.776Z,5.02
2018-12-19T17:22:16.745Z,5.10
2018-12-19T17:23:16.714Z,5.05
2018-12-19T17:24:16.687Z,5.05
2018-12-19T17:25:16.655Z,5.07
2018-12-19T17:26:16.627Z,5.10
2018-12-19T17:27:16.601Z,5.10
2018-12-19T17:28:16.568Z,5.07
2018-12-19T17:29:16.540Z,5.07
2018-12-19T17:30:16.514Z,5.05
2018-12-19T17:31:16.482Z,5.04
2018-12-19T17:32:16.452Z,5.14
2018-12-19T17:33:16.427Z,4.98
2018-12-19T17:34:16.394Z,5.05
2018-12-19T17:35:16.377Z,5.02
2018-12-19T17:36:16.336Z,5.09
2018-12-19T17:37:16.307Z,5.05
2018-12-19T17:38:16.278Z,5.05
2018-12-19T17:39:16.249Z,5.04
2018-12-19T17:40:16.220Z,5.04
2018-12-19T17:41:18.443Z,5.04
2018-12-19T17:42:16.168Z,5.10
2018-12-19T17:43:16.134Z,5.01
2018-12-19T17:44:16.109Z,5.04
2018-12-19T17:45:16.078Z,5.04
2018-12-19T17:46:16.048Z,5.05
2018-12-19T17:47:16.017Z,5.12
2018-12-19T17:48:15.987Z,5.12
2018-12-19T17:49:15.959Z,5.14
2018-12-19T17:50:15.934Z,5.04
2018-12-19T17:51:15.904Z,5.07
2018-12-19T17:52:15.872Z,5.05
2018-12-19T17:53:15.843Z,5.05
2018-12-19T17:54:15.814Z,5.07
2018-12-19T17:55:15.785Z,5.16
2018-12-19T17:56:15.757Z,5.02
2018-12-19T17:57:15.726Z,5.09
2018-12-19T17:58:15.698Z,5.12
2018-12-19T17:59:15.670Z,5.19
2018-12-19T18:00:15.639Z,5.07
2018-12-19T18:01:15.611Z,5.13
2018-12-19T18:02:15.582Z,5.12
2018-12-19T18:03:18.558Z,5.27
2018-12-19T18:04:15.525Z,5.16
2018-12-19T18:05:16.145Z,5.28
2018-12-19T18:06:15.468Z,5.16
2018-12-19T18:07:15.438Z,5.16
2018-12-19T18:08:15.410Z,5.19
2018-12-19T18:09:15.381Z,5.20
2018-12-19T18:10:15.352Z,5.12
2018-12-19T18:11:15.323Z,5.13
2018-12-19T18:12:15.293Z,5.10
2018-12-19T18:13:15.265Z,5.22
2018-12-19T18:14:15.237Z,5.20
2018-12-19T18:15:15.208Z,5.30
2018-12-19T18:16:15.178Z,5.23
2018-12-19T18:17:15.151Z,5.25
2018-12-19T18:18:15.122Z,5.30
2018-12-19T18:19:15.094Z,5.23
2018-12-19T18:20:15.064Z,5.28
2018-12-19T18:21:15.036Z,5.25
2018-12-19T18:22:15.008Z,5.22
2018-12-19T18:23:14.979Z,5.14
2018-12-19T18:24:14.950Z,5.30
2018-12-19T18:25:14.922Z,5.19
2018-12-19T18:26:14.893Z,5.25
2018-12-19T18:27:14.868Z,5.13
2018-12-19T18:28:14.836Z,5.12
2018-12-19T18:29:14.808Z,5.17
2018-12-19T18:30:14.780Z,5.25
2018-12-19T18:31:14.751Z,5.13
2018-12-19T18:32:14.738Z,5.23
2018-12-19T18:33:14.696Z,5.13
2018-12-19T18:34:14.666Z,5.23
2018-12-19T18:35:14.637Z,5.20
2018-12-19T18:36:14.608Z,5.20
2018-12-19T18:37:14.580Z,5.05
2018-12-19T18:38:14.553Z,5.14
2018-12-19T18:39:14.525Z,5.19
2018-12-19T18:40:14.495Z,5.13
2018-12-19T18:41:14.465Z,5.12
2018-12-19T18:42:14.438Z,5.20
2018-12-19T18:43:14.410Z,5.12
2018-12-19T18:44:14.383Z,5.23
2018-12-19T18:45:14.352Z,5.23
2018-12-19T18:46:14.324Z,5.13
2018-12-19T18:47:14.296Z,5.23
2018-12-19T18:48:14.267Z,5.16
2018-12-19T18:49:14.238Z,5.13
2018-12-19T18:50:14.209Z,5.09
2018-12-19T18:51:14.182Z,5.25
2018-12-19T18:52:14.153Z,5.30
2018-12-19T18:53:14.126Z,5.20
2018-12-19T18:54:14.097Z,5.19
2018-12-19T18:55:14.069Z,5.17
2018-12-19T18:56:14.039Z,5.19
2018-12-19T18:57:14.011Z,5.16
2018-12-19T18:58:13.984Z,5.14
2018-12-19T18:59:13.954Z,5.14
2018-12-19T19:00:13.924Z,5.22
2018-12-19T19:01:13.925Z,5.32
2018-12-19T19:02:13.882Z,5.31
2018-12-19T19:03:15.147Z,5.27
2018-12-19T19:04:13.871Z,5.28
2018-12-19T19:05:13.785Z,5.30
2018-12-19T19:06:13.802Z,5.31
2018-12-19T19:07:13.780Z,5.30
2018-12-19T19:08:13.755Z,5.38
2018-12-19T19:09:13.670Z,5.41
2018-12-19T19:10:13.641Z,5.37
2018-12-19T19:11:13.614Z,5.31
2018-12-19T19:12:13.584Z,5.35
2018-12-19T19:13:19.503Z,5.38
2018-12-19T19:14:13.528Z,5.32
2018-12-19T19:15:13.500Z,5.35
2018-12-19T19:16:13.472Z,5.38
2018-12-19T19:17:13.444Z,5.34
2018-12-19T19:18:13.416Z,5.40
2018-12-19T19:19:14.138Z,5.37
2018-12-19T19:20:13.358Z,5.41
2018-12-19T19:21:13.331Z,5.40
2018-12-19T19:22:13.304Z,5.40
2018-12-19T19:23:13.275Z,5.37
2018-12-19T19:24:13.245Z,5.45
2018-12-19T19:25:13.217Z,5.46
2018-12-19T19:26:13.189Z,5.48
2018-12-19T19:27:13.164Z,5.41
2018-12-19T19:28:13.132Z,5.32
2018-12-19T19:29:13.104Z,5.35
2018-12-19T19:30:13.077Z,5.35
2018-12-19T19:31:13.047Z,5.37
2018-12-19T19:32:13.022Z,5.31
2018-12-19T19:33:12.992Z,5.31
2018-12-19T19:34:12.964Z,5.32
2018-12-19T19:35:12.939Z,5.32
2018-12-19T19:36:12.908Z,5.28
2018-12-19T19:37:12.880Z,5.34
2018-12-19T19:38:12.851Z,5.32
2018-12-19T19:39:12.823Z,5.20
2018-12-19T19:40:12.796Z,5.20
2018-12-19T19:41:12.766Z,5.31
2018-12-19T19:42:12.738Z,5.28
2018-12-19T19:43:12.710Z,5.32
2018-12-19T19:44:12.681Z,5.38
2018-12-19T19:45:12.653Z,5.32
2018-12-19T19:46:12.625Z,5.28
2018-12-19T19:47:12.597Z,5.32
2018-12-19T19:48:12.568Z,5.31
2018-12-19T19:49:12.540Z,5.30
2018-12-19T19:50:12.512Z,5.35
2018-12-19T19:51:16.967Z,5.28
2018-12-19T19:52:12.455Z,5.30
2018-12-19T19:53:12.427Z,5.27
2018-12-19T19:54:12.401Z,5.34
2018-12-19T19:55:12.371Z,5.31
2018-12-19T19:56:12.342Z,5.28
2018-12-19T19:57:12.323Z,5.28
2018-12-19T19:58:12.286Z,5.28
2018-12-19T19:59:12.258Z,5.32
2018-12-19T20:00:12.232Z,5.25
2018-12-19T20:01:12.201Z,5.28
2018-12-19T20:02:12.173Z,5.23
2018-12-19T20:03:12.146Z,5.23
2018-12-19T20:04:12.116Z,5.31
2018-12-19T20:05:12.088Z,5.28
2018-12-19T20:06:12.060Z,5.30
2018-12-19T20:07:12.032Z,5.34
2018-12-19T20:08:12.003Z,5.27
2018-12-19T20:09:11.975Z,5.31
2018-12-19T20:10:11.947Z,5.31
2018-12-19T20:11:11.919Z,5.30
2018-12-19T20:12:11.890Z,5.27
2018-12-19T20:13:11.862Z,5.28
2018-12-19T20:14:11.834Z,5.25
2018-12-19T20:15:11.809Z,5.27
2018-12-19T20:16:11.779Z,5.23
2018-12-19T20:17:11.749Z,5.27
2018-12-19T20:18:11.721Z,5.27
2018-12-19T20:19:11.702Z,5.23
2018-12-19T20:20:11.665Z,5.22
2018-12-19T20:21:11.636Z,5.27
2018-12-19T20:22:11.607Z,5.28
2018-12-19T20:23:11.580Z,5.23
2018-12-19T20:24:11.554Z,5.28
2018-12-19T20:25:11.523Z,5.31
2018-12-19T20:26:11.495Z,5.35
2018-12-19T20:27:11.467Z,5.27
2018-12-19T20:28:11.438Z,5.30
2018-12-19T20:29:11.413Z,5.30
2018-12-19T20:30:11.382Z,5.28
2018-12-19T20:31:11.354Z,5.25
2018-12-19T20:32:11.326Z,5.35
2018-12-19T20:33:11.297Z,5.31
2018-12-19T20:34:11.272Z,5.32
2018-12-19T20:35:11.241Z,5.28